sensor_id;sensor_type;location;lat;lon;timestamp;temperature;humidity
40538;DHT22;27925;41.874;12.526;2022-07-18T00:02:20;29.30;54.60
40538;DHT22;27925;41.874;12.526;2022-07-18T00:04:46;29.20;53.80
40538;DHT22;27925;41.874;12.526;2022-07-18T00:07:12;29.20;53.10
40538;DHT22;27925;41.874;12.526;2022-07-18T00:09:42;29.20;52.80
40538;DHT22;27925;41.874;12.526;2022-07-18T00:12:10;29.10;51.90
40538;DHT22;27925;41.874;12.526;2022-07-18T00:14:37;29.10;51.60
40538;DHT22;27925;41.874;12.526;2022-07-18T00:17:04;29.10;51.20
40538;DHT22;27925;41.874;12.526;2022-07-18T00:19:30;29.10;50.90
40538;DHT22;27925;41.874;12.526;2022-07-18T00:21:56;29.10;50.80
40538;DHT22;27925;41.874;12.526;2022-07-18T00:24:22;29.00;50.60
40538;DHT22;27925;41.874;12.526;2022-07-18T00:26:48;29.00;50.90
40538;DHT22;27925;41.874;12.526;2022-07-18T00:29:13;29.10;49.90
40538;DHT22;27925;41.874;12.526;2022-07-18T00:31:39;29.10;49.80
40538;DHT22;27925;41.874;12.526;2022-07-18T00:34:05;29.10;49.50
40538;DHT22;27925;41.874;12.526;2022-07-18T00:36:31;29.10;49.50
40538;DHT22;27925;41.874;12.526;2022-07-18T00:38:57;29.10;49.20
40538;DHT22;27925;41.874;12.526;2022-07-18T00:41:24;29.10;49.40
40538;DHT22;27925;41.874;12.526;2022-07-18T00:43:50;29.10;48.90
40538;DHT22;27925;41.874;12.526;2022-07-18T00:46:19;29.10;48.80
40538;DHT22;27925;41.874;12.526;2022-07-18T00:48:45;29.10;48.70
40538;DHT22;27925;41.874;12.526;2022-07-18T00:51:11;29.10;48.60
40538;DHT22;27925;41.874;12.526;2022-07-18T00:53:36;29.10;48.30
40538;DHT22;27925;41.874;12.526;2022-07-18T00:56:03;29.10;48.30
40538;DHT22;27925;41.874;12.526;2022-07-18T00:58:30;29.10;47.90
40538;DHT22;27925;41.874;12.526;2022-07-18T01:00:56;29.10;48.00
40538;DHT22;27925;41.874;12.526;2022-07-18T01:03:41;29.10;47.50
40538;DHT22;27925;41.874;12.526;2022-07-18T01:06:07;29.00;47.70
40538;DHT22;27925;41.874;12.526;2022-07-18T01:08:33;29.00;47.70
40538;DHT22;27925;41.874;12.526;2022-07-18T01:11:00;29.00;47.70
40538;DHT22;27925;41.874;12.526;2022-07-18T01:13:26;28.90;47.60
40538;DHT22;27925;41.874;12.526;2022-07-18T01:15:52;28.90;47.60
40538;DHT22;27925;41.874;12.526;2022-07-18T01:18:17;28.90;47.70
40538;DHT22;27925;41.874;12.526;2022-07-18T01:20:43;28.90;47.20
40538;DHT22;27925;41.874;12.526;2022-07-18T01:23:09;28.90;47.30
40538;DHT22;27925;41.874;12.526;2022-07-18T01:25:35;28.80;47.30
40538;DHT22;27925;41.874;12.526;2022-07-18T01:28:00;28.80;47.30
40538;DHT22;27925;41.874;12.526;2022-07-18T01:30:26;28.80;47.20
40538;DHT22;27925;41.874;12.526;2022-07-18T01:32:57;28.80;46.90
40538;DHT22;27925;41.874;12.526;2022-07-18T01:35:24;28.80;46.90
40538;DHT22;27925;41.874;12.526;2022-07-18T01:37:54;28.80;46.90
40538;DHT22;27925;41.874;12.526;2022-07-18T01:40:21;28.80;46.70
40538;DHT22;27925;41.874;12.526;2022-07-18T01:42:47;28.80;46.50
40538;DHT22;27925;41.874;12.526;2022-07-18T01:45:13;28.80;46.50
40538;DHT22;27925;41.874;12.526;2022-07-18T01:47:39;28.80;46.40
40538;DHT22;27925;41.874;12.526;2022-07-18T01:50:05;28.70;46.40
40538;DHT22;27925;41.874;12.526;2022-07-18T01:52:31;28.70;46.10
40538;DHT22;27925;41.874;12.526;2022-07-18T01:54:57;28.70;46.20
40538;DHT22;27925;41.874;12.526;2022-07-18T01:57:23;28.70;46.30
40538;DHT22;27925;41.874;12.526;2022-07-18T01:59:49;28.70;46.40
40538;DHT22;27925;41.874;12.526;2022-07-18T02:02:15;28.70;46.30
40538;DHT22;27925;41.874;12.526;2022-07-18T02:04:41;28.70;46.60
40538;DHT22;27925;41.874;12.526;2022-07-18T02:07:39;28.60;45.70
40538;DHT22;27925;41.874;12.526;2022-07-18T02:10:12;28.60;46.50
40538;DHT22;27925;41.874;12.526;2022-07-18T02:12:39;28.50;46.70
40538;DHT22;27925;41.874;12.526;2022-07-18T02:15:06;28.50;46.70
40538;DHT22;27925;41.874;12.526;2022-07-18T02:17:33;28.60;46.60
40538;DHT22;27925;41.874;12.526;2022-07-18T02:19:58;28.60;46.70
40538;DHT22;27925;41.874;12.526;2022-07-18T02:22:24;28.60;46.70
40538;DHT22;27925;41.874;12.526;2022-07-18T02:24:51;28.60;46.80
40538;DHT22;27925;41.874;12.526;2022-07-18T02:27:17;28.50;47.00
40538;DHT22;27925;41.874;12.526;2022-07-18T02:29:43;28.60;46.80
40538;DHT22;27925;41.874;12.526;2022-07-18T02:32:09;28.60;46.70
40538;DHT22;27925;41.874;12.526;2022-07-18T02:34:35;28.60;46.80
40538;DHT22;27925;41.874;12.526;2022-07-18T02:37:01;28.60;46.80
40538;DHT22;27925;41.874;12.526;2022-07-18T02:39:27;28.60;46.90
40538;DHT22;27925;41.874;12.526;2022-07-18T02:41:54;28.60;46.60
40538;DHT22;27925;41.874;12.526;2022-07-18T02:44:20;28.50;46.80
40538;DHT22;27925;41.874;12.526;2022-07-18T02:46:46;28.40;46.90
40538;DHT22;27925;41.874;12.526;2022-07-18T02:49:12;28.40;46.90
40538;DHT22;27925;41.874;12.526;2022-07-18T02:51:56;28.40;47.00
40538;DHT22;27925;41.874;12.526;2022-07-18T02:54:22;28.30;46.10
40538;DHT22;27925;41.874;12.526;2022-07-18T02:56:49;28.30;47.40
40538;DHT22;27925;41.874;12.526;2022-07-18T02:59:15;28.30;47.10
40538;DHT22;27925;41.874;12.526;2022-07-18T03:01:40;28.30;47.20
40538;DHT22;27925;41.874;12.526;2022-07-18T03:04:06;28.30;47.10
40538;DHT22;27925;41.874;12.526;2022-07-18T03:06:32;28.30;47.30
40538;DHT22;27925;41.874;12.526;2022-07-18T03:08:58;28.30;47.10
40538;DHT22;27925;41.874;12.526;2022-07-18T03:11:23;28.30;47.30
40538;DHT22;27925;41.874;12.526;2022-07-18T03:13:49;28.20;47.40
40538;DHT22;27925;41.874;12.526;2022-07-18T03:16:15;28.20;47.50
40538;DHT22;27925;41.874;12.526;2022-07-18T03:18:40;28.20;47.70
40538;DHT22;27925;41.874;12.526;2022-07-18T03:21:06;28.20;47.50
40538;DHT22;27925;41.874;12.526;2022-07-18T03:23:32;28.20;47.40
40538;DHT22;27925;41.874;12.526;2022-07-18T03:25:57;28.10;47.50
40538;DHT22;27925;41.874;12.526;2022-07-18T03:28:23;28.10;47.30
40538;DHT22;27925;41.874;12.526;2022-07-18T03:30:49;28.10;47.50
40538;DHT22;27925;41.874;12.526;2022-07-18T03:33:15;28.10;47.40
40538;DHT22;27925;41.874;12.526;2022-07-18T03:35:40;28.10;47.10
40538;DHT22;27925;41.874;12.526;2022-07-18T03:38:06;28.10;47.20
40538;DHT22;27925;41.874;12.526;2022-07-18T03:40:32;28.10;47.40
40538;DHT22;27925;41.874;12.526;2022-07-18T03:42:58;28.00;47.30
40538;DHT22;27925;41.874;12.526;2022-07-18T03:45:23;28.10;47.40
40538;DHT22;27925;41.874;12.526;2022-07-18T03:47:49;28.10;47.20
40538;DHT22;27925;41.874;12.526;2022-07-18T03:50:15;28.00;47.30
40538;DHT22;27925;41.874;12.526;2022-07-18T03:52:41;28.00;47.30
40538;DHT22;27925;41.874;12.526;2022-07-18T03:55:07;28.00;47.40
40538;DHT22;27925;41.874;12.526;2022-07-18T03:57:33;27.90;47.60
40538;DHT22;27925;41.874;12.526;2022-07-18T03:59:59;27.80;47.90
40538;DHT22;27925;41.874;12.526;2022-07-18T04:02:24;27.80;47.80
40538;DHT22;27925;41.874;12.526;2022-07-18T04:04:50;27.80;47.80
40538;DHT22;27925;41.874;12.526;2022-07-18T04:07:16;27.80;48.20
40538;DHT22;27925;41.874;12.526;2022-07-18T04:09:41;27.70;48.20
40538;DHT22;27925;41.874;12.526;2022-07-18T04:12:07;27.70;48.10
40538;DHT22;27925;41.874;12.526;2022-07-18T04:14:33;27.70;48.20
40538;DHT22;27925;41.874;12.526;2022-07-18T04:16:58;27.70;48.20
40538;DHT22;27925;41.874;12.526;2022-07-18T04:19:24;27.70;48.40
40538;DHT22;27925;41.874;12.526;2022-07-18T04:21:50;27.70;48.40
40538;DHT22;27925;41.874;12.526;2022-07-18T04:24:16;27.60;48.20
40538;DHT22;27925;41.874;12.526;2022-07-18T04:26:42;27.60;48.30
40538;DHT22;27925;41.874;12.526;2022-07-18T04:29:08;27.60;48.30
40538;DHT22;27925;41.874;12.526;2022-07-18T04:31:33;27.60;48.40
40538;DHT22;27925;41.874;12.526;2022-07-18T04:33:59;27.60;48.40
40538;DHT22;27925;41.874;12.526;2022-07-18T04:36:25;27.60;48.60
40538;DHT22;27925;41.874;12.526;2022-07-18T04:38:51;27.70;48.70
40538;DHT22;27925;41.874;12.526;2022-07-18T04:41:17;27.70;48.70
40538;DHT22;27925;41.874;12.526;2022-07-18T04:43:45;27.60;48.80
40538;DHT22;27925;41.874;12.526;2022-07-18T04:46:11;27.60;48.90
40538;DHT22;27925;41.874;12.526;2022-07-18T04:48:36;27.70;48.80
40538;DHT22;27925;41.874;12.526;2022-07-18T04:51:04;27.70;48.60
40538;DHT22;27925;41.874;12.526;2022-07-18T04:53:30;27.70;48.60
40538;DHT22;27925;41.874;12.526;2022-07-18T04:55:56;27.80;48.70
40538;DHT22;27925;41.874;12.526;2022-07-18T04:58:22;27.80;48.70
40538;DHT22;27925;41.874;12.526;2022-07-18T05:00:47;27.90;48.80
40538;DHT22;27925;41.874;12.526;2022-07-18T05:03:14;27.90;48.60
40538;DHT22;27925;41.874;12.526;2022-07-18T05:05:40;27.90;48.70
40538;DHT22;27925;41.874;12.526;2022-07-18T05:08:05;27.90;48.50
40538;DHT22;27925;41.874;12.526;2022-07-18T05:10:32;28.00;48.60
40538;DHT22;27925;41.874;12.526;2022-07-18T05:12:58;28.10;48.60
40538;DHT22;27925;41.874;12.526;2022-07-18T05:15:24;28.10;48.40
40538;DHT22;27925;41.874;12.526;2022-07-18T05:17:51;28.20;48.60
40538;DHT22;27925;41.874;12.526;2022-07-18T05:20:21;28.20;48.60
40538;DHT22;27925;41.874;12.526;2022-07-18T05:22:47;28.40;48.50
40538;DHT22;27925;41.874;12.526;2022-07-18T05:25:13;28.60;48.00
40538;DHT22;27925;41.874;12.526;2022-07-18T05:27:40;28.90;47.90
40538;DHT22;27925;41.874;12.526;2022-07-18T05:30:07;29.20;47.40
40538;DHT22;27925;41.874;12.526;2022-07-18T05:32:33;29.40;46.90
40538;DHT22;27925;41.874;12.526;2022-07-18T05:34:59;29.70;46.50
40538;DHT22;27925;41.874;12.526;2022-07-18T05:37:26;30.10;46.30
40538;DHT22;27925;41.874;12.526;2022-07-18T05:39:51;30.40;46.20
40538;DHT22;27925;41.874;12.526;2022-07-18T05:42:18;30.70;45.40
40538;DHT22;27925;41.874;12.526;2022-07-18T05:44:44;31.00;45.00
40538;DHT22;27925;41.874;12.526;2022-07-18T05:47:09;31.30;44.70
40538;DHT22;27925;41.874;12.526;2022-07-18T05:49:35;31.50;44.20
40538;DHT22;27925;41.874;12.526;2022-07-18T05:52:01;31.60;44.00
40538;DHT22;27925;41.874;12.526;2022-07-18T05:54:27;31.80;43.70
40538;DHT22;27925;41.874;12.526;2022-07-18T05:56:53;32.00;43.10
40538;DHT22;27925;41.874;12.526;2022-07-18T05:59:19;32.30;43.00
40538;DHT22;27925;41.874;12.526;2022-07-18T06:01:45;32.50;42.80
40538;DHT22;27925;41.874;12.526;2022-07-18T06:04:11;32.90;42.10
40538;DHT22;27925;41.874;12.526;2022-07-18T06:06:37;33.00;41.60
40538;DHT22;27925;41.874;12.526;2022-07-18T06:09:04;33.10;41.50
40538;DHT22;27925;41.874;12.526;2022-07-18T06:11:30;33.40;41.30
40538;DHT22;27925;41.874;12.526;2022-07-18T06:13:56;33.50;41.00
40538;DHT22;27925;41.874;12.526;2022-07-18T06:16:22;33.70;41.20
40538;DHT22;27925;41.874;12.526;2022-07-18T06:18:48;33.90;41.00
40538;DHT22;27925;41.874;12.526;2022-07-18T06:21:13;33.80;40.70
40538;DHT22;27925;41.874;12.526;2022-07-18T06:23:39;33.90;40.90
40538;DHT22;27925;41.874;12.526;2022-07-18T06:26:06;34.00;40.80
40538;DHT22;27925;41.874;12.526;2022-07-18T06:28:32;34.20;40.40
40538;DHT22;27925;41.874;12.526;2022-07-18T06:30:57;34.30;40.20
40538;DHT22;27925;41.874;12.526;2022-07-18T06:33:23;34.30;39.90
40538;DHT22;27925;41.874;12.526;2022-07-18T06:35:49;34.30;40.00
40538;DHT22;27925;41.874;12.526;2022-07-18T06:38:16;34.60;39.90
40538;DHT22;27925;41.874;12.526;2022-07-18T06:40:43;34.70;39.30
40538;DHT22;27925;41.874;12.526;2022-07-18T06:43:08;34.60;38.80
40538;DHT22;27925;41.874;12.526;2022-07-18T06:45:34;34.70;39.30
40538;DHT22;27925;41.874;12.526;2022-07-18T06:48:00;34.70;39.30
40538;DHT22;27925;41.874;12.526;2022-07-18T06:50:26;34.70;38.90
40538;DHT22;27925;41.874;12.526;2022-07-18T06:52:52;34.60;39.50
40538;DHT22;27925;41.874;12.526;2022-07-18T06:55:18;34.70;39.40
40538;DHT22;27925;41.874;12.526;2022-07-18T06:57:44;34.80;39.40
40538;DHT22;27925;41.874;12.526;2022-07-18T07:00:12;34.80;38.90
40538;DHT22;27925;41.874;12.526;2022-07-18T07:02:46;34.90;38.90
40538;DHT22;27925;41.874;12.526;2022-07-18T07:05:13;34.90;38.90
40538;DHT22;27925;41.874;12.526;2022-07-18T07:07:40;35.00;38.90
40538;DHT22;27925;41.874;12.526;2022-07-18T07:10:07;35.00;38.70
40538;DHT22;27925;41.874;12.526;2022-07-18T07:12:49;35.10;39.30
40538;DHT22;27925;41.874;12.526;2022-07-18T07:15:17;35.10;39.80
40538;DHT22;27925;41.874;12.526;2022-07-18T07:17:43;35.20;38.50
40538;DHT22;27925;41.874;12.526;2022-07-18T07:20:09;35.40;38.50
40538;DHT22;27925;41.874;12.526;2022-07-18T07:22:47;35.60;38.70
40538;DHT22;27925;41.874;12.526;2022-07-18T07:25:14;35.60;38.30
40538;DHT22;27925;41.874;12.526;2022-07-18T07:27:41;35.60;38.30
40538;DHT22;27925;41.874;12.526;2022-07-18T07:30:07;35.70;38.40
40538;DHT22;27925;41.874;12.526;2022-07-18T07:32:35;35.80;38.50
40538;DHT22;27925;41.874;12.526;2022-07-18T07:35:05;35.80;38.10
40538;DHT22;27925;41.874;12.526;2022-07-18T07:37:35;35.90;38.30
40538;DHT22;27925;41.874;12.526;2022-07-18T07:40:00;35.90;38.30
40538;DHT22;27925;41.874;12.526;2022-07-18T07:42:26;36.10;38.30
40538;DHT22;27925;41.874;12.526;2022-07-18T07:44:52;36.10;38.10
40538;DHT22;27925;41.874;12.526;2022-07-18T07:47:18;35.90;38.30
40538;DHT22;27925;41.874;12.526;2022-07-18T07:49:43;35.80;38.30
40538;DHT22;27925;41.874;12.526;2022-07-18T07:52:09;35.90;38.30
40538;DHT22;27925;41.874;12.526;2022-07-18T07:54:37;35.90;38.40
40538;DHT22;27925;41.874;12.526;2022-07-18T07:57:03;35.80;38.60
40538;DHT22;27925;41.874;12.526;2022-07-18T07:59:28;35.80;38.70
40538;DHT22;27925;41.874;12.526;2022-07-18T08:01:55;35.80;38.50
40538;DHT22;27925;41.874;12.526;2022-07-18T08:04:21;35.70;38.70
40538;DHT22;27925;41.874;12.526;2022-07-18T08:06:47;35.60;38.70
40538;DHT22;27925;41.874;12.526;2022-07-18T08:09:12;35.60;38.90
40538;DHT22;27925;41.874;12.526;2022-07-18T08:11:38;35.50;38.90
40538;DHT22;27925;41.874;12.526;2022-07-18T08:14:04;35.40;39.10
40538;DHT22;27925;41.874;12.526;2022-07-18T08:16:30;35.40;39.20
40538;DHT22;27925;41.874;12.526;2022-07-18T08:18:56;35.30;39.50
40538;DHT22;27925;41.874;12.526;2022-07-18T08:21:21;35.30;39.30
40538;DHT22;27925;41.874;12.526;2022-07-18T08:23:47;35.20;39.60
40538;DHT22;27925;41.874;12.526;2022-07-18T08:26:14;35.10;39.80
40538;DHT22;27925;41.874;12.526;2022-07-18T08:28:39;35.00;40.00
40538;DHT22;27925;41.874;12.526;2022-07-18T08:31:05;35.00;40.30
40538;DHT22;27925;41.874;12.526;2022-07-18T08:33:31;34.90;40.20
40538;DHT22;27925;41.874;12.526;2022-07-18T08:35:56;34.80;40.40
40538;DHT22;27925;41.874;12.526;2022-07-18T08:38:22;34.80;40.30
40538;DHT22;27925;41.874;12.526;2022-07-18T08:40:48;34.70;40.60
40538;DHT22;27925;41.874;12.526;2022-07-18T08:43:17;34.60;40.80
40538;DHT22;27925;41.874;12.526;2022-07-18T08:45:43;34.70;41.10
40538;DHT22;27925;41.874;12.526;2022-07-18T08:48:12;34.60;40.80
40538;DHT22;27925;41.874;12.526;2022-07-18T08:50:38;34.60;41.50
40538;DHT22;27925;41.874;12.526;2022-07-18T08:53:04;34.50;41.30
40538;DHT22;27925;41.874;12.526;2022-07-18T08:55:30;34.60;41.20
40538;DHT22;27925;41.874;12.526;2022-07-18T08:57:57;34.60;41.20
40538;DHT22;27925;41.874;12.526;2022-07-18T09:00:22;34.70;41.40
40538;DHT22;27925;41.874;12.526;2022-07-18T09:03:03;34.70;41.20
40538;DHT22;27925;41.874;12.526;2022-07-18T09:05:29;34.60;41.30
40538;DHT22;27925;41.874;12.526;2022-07-18T09:08:11;34.70;41.10
40538;DHT22;27925;41.874;12.526;2022-07-18T09:10:51;34.70;42.10
40538;DHT22;27925;41.874;12.526;2022-07-18T09:13:19;34.70;41.80
40538;DHT22;27925;41.874;12.526;2022-07-18T09:18:52;34.50;41.00
40538;DHT22;27925;41.874;12.526;2022-07-18T09:21:22;34.50;41.10
40538;DHT22;27925;41.874;12.526;2022-07-18T09:23:50;34.50;40.90
40538;DHT22;27925;41.874;12.526;2022-07-18T09:26:39;34.50;41.00
40538;DHT22;27925;41.874;12.526;2022-07-18T09:29:05;34.60;41.60
40538;DHT22;27925;41.874;12.526;2022-07-18T09:31:31;34.60;40.60
40538;DHT22;27925;41.874;12.526;2022-07-18T09:34:01;34.60;40.30
40538;DHT22;27925;41.874;12.526;2022-07-18T09:36:29;34.60;40.40
40538;DHT22;27925;41.874;12.526;2022-07-18T09:38:55;34.60;40.60
40538;DHT22;27925;41.874;12.526;2022-07-18T09:41:25;34.70;40.40
40538;DHT22;27925;41.874;12.526;2022-07-18T09:43:51;34.80;40.20
40538;DHT22;27925;41.874;12.526;2022-07-18T09:46:17;34.80;40.10
40538;DHT22;27925;41.874;12.526;2022-07-18T09:48:43;34.80;40.00
40538;DHT22;27925;41.874;12.526;2022-07-18T09:51:09;34.90;40.20
40538;DHT22;27925;41.874;12.526;2022-07-18T09:53:38;35.00;39.60
40538;DHT22;27925;41.874;12.526;2022-07-18T09:56:11;35.00;39.20
40538;DHT22;27925;41.874;12.526;2022-07-18T10:01:16;35.10;39.00
40538;DHT22;27925;41.874;12.526;2022-07-18T10:03:42;35.00;38.70
40538;DHT22;27925;41.874;12.526;2022-07-18T10:06:08;35.10;39.00
40538;DHT22;27925;41.874;12.526;2022-07-18T10:08:34;35.20;38.40
40538;DHT22;27925;41.874;12.526;2022-07-18T10:11:03;35.20;37.90
40538;DHT22;27925;41.874;12.526;2022-07-18T10:13:30;35.20;38.20
40538;DHT22;27925;41.874;12.526;2022-07-18T10:15:57;35.20;38.20
40538;DHT22;27925;41.874;12.526;2022-07-18T10:18:27;35.20;38.50
40538;DHT22;27925;41.874;12.526;2022-07-18T10:23:33;35.30;38.80
40538;DHT22;27925;41.874;12.526;2022-07-18T10:31:22;35.50;38.10
40538;DHT22;27925;41.874;12.526;2022-07-18T10:33:49;35.60;38.10
40538;DHT22;27925;41.874;12.526;2022-07-18T10:36:22;35.60;38.10
40538;DHT22;27925;41.874;12.526;2022-07-18T10:39:12;35.70;38.20
40538;DHT22;27925;41.874;12.526;2022-07-18T11:00:16;36.20;37.10
40538;DHT22;27925;41.874;12.526;2022-07-18T11:02:44;36.20;36.50
40538;DHT22;27925;41.874;12.526;2022-07-18T11:18:20;36.50;36.00
40538;DHT22;27925;41.874;12.526;2022-07-18T11:20:46;36.50;35.50
40538;DHT22;27925;41.874;12.526;2022-07-18T11:23:31;36.50;35.10
40538;DHT22;27925;41.874;12.526;2022-07-18T11:25:58;36.50;33.80
40538;DHT22;27925;41.874;12.526;2022-07-18T11:28:25;36.60;33.70
40538;DHT22;27925;41.874;12.526;2022-07-18T11:31:03;36.60;33.40
40538;DHT22;27925;41.874;12.526;2022-07-18T11:33:32;36.60;32.80
40538;DHT22;27925;41.874;12.526;2022-07-18T11:36:10;36.60;33.00
40538;DHT22;27925;41.874;12.526;2022-07-18T11:38:39;36.60;33.10
40538;DHT22;27925;41.874;12.526;2022-07-18T11:41:05;36.70;32.20
40538;DHT22;27925;41.874;12.526;2022-07-18T11:43:31;36.70;31.90
40538;DHT22;27925;41.874;12.526;2022-07-18T11:46:00;36.70;32.10
40538;DHT22;27925;41.874;12.526;2022-07-18T11:48:27;36.80;31.60
40538;DHT22;27925;41.874;12.526;2022-07-18T11:50:53;36.90;31.90
40538;DHT22;27925;41.874;12.526;2022-07-18T11:53:18;36.90;31.50
40538;DHT22;27925;41.874;12.526;2022-07-18T11:55:44;37.00;31.50
40538;DHT22;27925;41.874;12.526;2022-07-18T11:58:12;37.00;31.40
40538;DHT22;27925;41.874;12.526;2022-07-18T12:00:38;37.00;31.10
40538;DHT22;27925;41.874;12.526;2022-07-18T12:08:28;37.10;31.00
40538;DHT22;27925;41.874;12.526;2022-07-18T12:18:53;37.20;30.50
40538;DHT22;27925;41.874;12.526;2022-07-18T12:21:19;37.30;30.40
40538;DHT22;27925;41.874;12.526;2022-07-18T12:23:45;37.20;30.40
40538;DHT22;27925;41.874;12.526;2022-07-18T12:26:29;37.20;30.40
40538;DHT22;27925;41.874;12.526;2022-07-18T12:29:08;37.30;30.00
40538;DHT22;27925;41.874;12.526;2022-07-18T12:34:10;37.30;30.30
40538;DHT22;27925;41.874;12.526;2022-07-18T12:36:56;37.30;30.30
40538;DHT22;27925;41.874;12.526;2022-07-18T12:39:27;37.40;30.00
40538;DHT22;27925;41.874;12.526;2022-07-18T12:41:54;37.50;30.20
40538;DHT22;27925;41.874;12.526;2022-07-18T12:44:20;37.50;30.30
40538;DHT22;27925;41.874;12.526;2022-07-18T12:46:45;37.60;30.20
40538;DHT22;27925;41.874;12.526;2022-07-18T12:49:11;37.70;30.20
40538;DHT22;27925;41.874;12.526;2022-07-18T12:51:37;37.70;30.00
40538;DHT22;27925;41.874;12.526;2022-07-18T12:54:03;37.70;29.90
40538;DHT22;27925;41.874;12.526;2022-07-18T12:56:29;37.70;29.80
40538;DHT22;27925;41.874;12.526;2022-07-18T12:58:54;37.60;29.70
40538;DHT22;27925;41.874;12.526;2022-07-18T13:01:22;37.70;29.70
40538;DHT22;27925;41.874;12.526;2022-07-18T13:03:48;37.70;29.60
40538;DHT22;27925;41.874;12.526;2022-07-18T13:06:14;37.70;29.60
40538;DHT22;27925;41.874;12.526;2022-07-18T13:08:39;37.70;29.70
40538;DHT22;27925;41.874;12.526;2022-07-18T13:11:05;37.70;29.80
40538;DHT22;27925;41.874;12.526;2022-07-18T13:13:31;37.60;29.80
40538;DHT22;27925;41.874;12.526;2022-07-18T13:15:56;37.50;29.90
40538;DHT22;27925;41.874;12.526;2022-07-18T13:18:22;37.50;29.90
40538;DHT22;27925;41.874;12.526;2022-07-18T13:20:48;37.40;30.10
40538;DHT22;27925;41.874;12.526;2022-07-18T13:23:14;37.30;30.20
40538;DHT22;27925;41.874;12.526;2022-07-18T13:25:41;37.20;30.50
40538;DHT22;27925;41.874;12.526;2022-07-18T13:28:07;37.20;30.50
40538;DHT22;27925;41.874;12.526;2022-07-18T13:30:33;37.20;30.40
40538;DHT22;27925;41.874;12.526;2022-07-18T13:32:59;37.20;31.20
40538;DHT22;27925;41.874;12.526;2022-07-18T13:35:25;37.30;30.50
40538;DHT22;27925;41.874;12.526;2022-07-18T13:37:50;37.30;30.60
40538;DHT22;27925;41.874;12.526;2022-07-18T13:40:16;37.20;30.90
40538;DHT22;27925;41.874;12.526;2022-07-18T13:42:44;37.10;31.00
40538;DHT22;27925;41.874;12.526;2022-07-18T13:45:10;37.00;31.20
40538;DHT22;27925;41.874;12.526;2022-07-18T13:47:35;36.80;31.40
40538;DHT22;27925;41.874;12.526;2022-07-18T13:50:01;36.70;31.60
40538;DHT22;27925;41.874;12.526;2022-07-18T13:52:27;36.70;31.90
40538;DHT22;27925;41.874;12.526;2022-07-18T13:54:53;36.60;31.90
40538;DHT22;27925;41.874;12.526;2022-07-18T13:57:21;36.50;32.10
40538;DHT22;27925;41.874;12.526;2022-07-18T13:59:46;36.50;32.10
40538;DHT22;27925;41.874;12.526;2022-07-18T14:02:12;36.50;32.20
40538;DHT22;27925;41.874;12.526;2022-07-18T14:04:38;36.50;32.60
40538;DHT22;27925;41.874;12.526;2022-07-18T14:07:04;36.50;32.70
40538;DHT22;27925;41.874;12.526;2022-07-18T14:09:31;36.50;32.90
40538;DHT22;27925;41.874;12.526;2022-07-18T14:11:57;36.50;33.20
40538;DHT22;27925;41.874;12.526;2022-07-18T14:14:22;36.50;33.30
40538;DHT22;27925;41.874;12.526;2022-07-18T14:16:48;36.60;33.60
40538;DHT22;27925;41.874;12.526;2022-07-18T14:19:14;36.60;33.80
40538;DHT22;27925;41.874;12.526;2022-07-18T14:21:40;36.60;34.40
40538;DHT22;27925;41.874;12.526;2022-07-18T14:24:05;36.50;34.70
40538;DHT22;27925;41.874;12.526;2022-07-18T14:26:31;36.50;35.30
40538;DHT22;27925;41.874;12.526;2022-07-18T14:28:57;36.50;35.90
40538;DHT22;27925;41.874;12.526;2022-07-18T14:31:22;36.30;36.70
40538;DHT22;27925;41.874;12.526;2022-07-18T14:33:48;36.20;37.30
40538;DHT22;27925;41.874;12.526;2022-07-18T14:36:14;36.10;37.60
40538;DHT22;27925;41.874;12.526;2022-07-18T14:38:40;36.10;38.10
40538;DHT22;27925;41.874;12.526;2022-07-18T14:41:06;36.10;38.60
40538;DHT22;27925;41.874;12.526;2022-07-18T14:43:32;36.00;39.70
40538;DHT22;27925;41.874;12.526;2022-07-18T14:45:58;36.10;40.60
40538;DHT22;27925;41.874;12.526;2022-07-18T14:48:23;36.00;41.50
40538;DHT22;27925;41.874;12.526;2022-07-18T14:50:50;36.00;42.40
40538;DHT22;27925;41.874;12.526;2022-07-18T14:53:16;35.90;42.40
40538;DHT22;27925;41.874;12.526;2022-07-18T14:55:42;35.90;43.10
40538;DHT22;27925;41.874;12.526;2022-07-18T14:58:09;36.00;43.00
40538;DHT22;27925;41.874;12.526;2022-07-18T15:00:35;35.90;43.60
40538;DHT22;27925;41.874;12.526;2022-07-18T15:03:00;35.90;44.30
40538;DHT22;27925;41.874;12.526;2022-07-18T15:05:26;36.00;44.20
40538;DHT22;27925;41.874;12.526;2022-07-18T15:07:52;36.00;44.20
40538;DHT22;27925;41.874;12.526;2022-07-18T15:10:18;36.10;44.40
40538;DHT22;27925;41.874;12.526;2022-07-18T15:12:43;36.10;44.10
40538;DHT22;27925;41.874;12.526;2022-07-18T15:15:09;36.00;43.90
40538;DHT22;27925;41.874;12.526;2022-07-18T15:17:35;36.00;43.90
40538;DHT22;27925;41.874;12.526;2022-07-18T15:20:02;36.10;44.30
40538;DHT22;27925;41.874;12.526;2022-07-18T15:22:28;36.00;44.10
40538;DHT22;27925;41.874;12.526;2022-07-18T15:24:55;36.00;44.30
40538;DHT22;27925;41.874;12.526;2022-07-18T15:27:20;35.80;44.20
40538;DHT22;27925;41.874;12.526;2022-07-18T15:29:46;35.80;44.50
40538;DHT22;27925;41.874;12.526;2022-07-18T15:32:12;35.80;44.70
40538;DHT22;27925;41.874;12.526;2022-07-18T15:34:38;35.90;44.90
40538;DHT22;27925;41.874;12.526;2022-07-18T15:37:04;36.00;44.50
40538;DHT22;27925;41.874;12.526;2022-07-18T15:39:31;36.00;44.20
40538;DHT22;27925;41.874;12.526;2022-07-18T15:41:57;36.10;45.10
40538;DHT22;27925;41.874;12.526;2022-07-18T15:44:23;36.00;44.70
40538;DHT22;27925;41.874;12.526;2022-07-18T15:46:49;35.90;45.30
40538;DHT22;27925;41.874;12.526;2022-07-18T15:49:15;35.80;45.40
40538;DHT22;27925;41.874;12.526;2022-07-18T15:51:41;35.80;46.10
40538;DHT22;27925;41.874;12.526;2022-07-18T15:54:08;35.70;45.20
40538;DHT22;27925;41.874;12.526;2022-07-18T15:56:34;35.70;45.10
40538;DHT22;27925;41.874;12.526;2022-07-18T15:59:00;35.70;44.70
40538;DHT22;27925;41.874;12.526;2022-07-18T16:01:26;35.70;44.30
40538;DHT22;27925;41.874;12.526;2022-07-18T16:03:51;35.80;44.10
40538;DHT22;27925;41.874;12.526;2022-07-18T16:06:17;35.90;43.80
40538;DHT22;27925;41.874;12.526;2022-07-18T16:08:43;36.00;43.40
40538;DHT22;27925;41.874;12.526;2022-07-18T16:11:09;35.90;43.00
40538;DHT22;27925;41.874;12.526;2022-07-18T16:13:34;36.00;42.80
40538;DHT22;27925;41.874;12.526;2022-07-18T16:16:00;35.90;42.40